sensor_id;sensor_type;location;lat;lon;timestamp;pressure;altitude;pressure_sealevel;temperature
71960;BMP280;59832;51.146;14.024;2022-09-24T00:00:54;98308.38;;;8.93
71960;BMP280;59832;51.146;14.024;2022-09-24T00:03:23;98314.81;;;8.91
71960;BMP280;59832;51.146;14.024;2022-09-24T00:05:50;98306.13;;;8.92
71960;BMP280;59832;51.146;14.024;2022-09-24T00:08:17;98310.09;;;8.89
71960;BMP280;59832;51.146;14.024;2022-09-24T00:10:44;98306.41;;;8.87
71960;BMP280;59832;51.146;14.024;2022-09-24T00:13:13;98310.78;;;8.90
71960;BMP280;59832;51.146;14.024;2022-09-24T00:15:40;98305.94;;;8.97
71960;BMP280;59832;51.146;14.024;2022-09-24T00:18:07;98298.78;;;8.87
71960;BMP280;59832;51.146;14.024;2022-09-24T00:20:33;98290.84;;;8.88
71960;BMP280;59832;51.146;14.024;2022-09-24T00:23:00;98303.13;;;8.86
71960;BMP280;59832;51.146;14.024;2022-09-24T00:25:26;98299.53;;;8.87
71960;BMP280;59832;51.146;14.024;2022-09-24T00:28:12;98296.25;;;8.87
71960;BMP280;59832;51.146;14.024;2022-09-24T00:30:39;98298.09;;;8.90
71960;BMP280;59832;51.146;14.024;2022-09-24T00:33:05;98282.88;;;8.90
71960;BMP280;59832;51.146;14.024;2022-09-24T00:35:32;98287.63;;;8.91
71960;BMP280;59832;51.146;14.024;2022-09-24T00:37:59;98288.69;;;8.90
71960;BMP280;59832;51.146;14.024;2022-09-24T00:40:30;98276.69;;;8.87
71960;BMP280;59832;51.146;14.024;2022-09-24T00:42:56;98278.47;;;8.87
71960;BMP280;59832;51.146;14.024;2022-09-24T00:45:23;98274.94;;;8.91
71960;BMP280;59832;51.146;14.024;2022-09-24T00:47:50;98272.03;;;8.89
71960;BMP280;59832;51.146;14.024;2022-09-24T00:50:18;98266.53;;;8.87
71960;BMP280;59832;51.146;14.024;2022-09-24T00:52:50;98278.06;;;8.85
71960;BMP280;59832;51.146;14.024;2022-09-24T00:55:17;98266.00;;;8.82
71960;BMP280;59832;51.146;14.024;2022-09-24T00:57:45;98265.25;;;8.81
71960;BMP280;59832;51.146;14.024;2022-09-24T01:00:12;98256.53;;;8.79
71960;BMP280;59832;51.146;14.024;2022-09-24T01:02:38;98256.84;;;8.77
71960;BMP280;59832;51.146;14.024;2022-09-24T01:05:07;98246.28;;;8.75
71960;BMP280;59832;51.146;14.024;2022-09-24T01:07:35;98254.63;;;8.76
71960;BMP280;59832;51.146;14.024;2022-09-24T01:10:01;98256.09;;;8.77
71960;BMP280;59832;51.146;14.024;2022-09-24T01:12:38;98248.50;;;8.77
71960;BMP280;59832;51.146;14.024;2022-09-24T01:15:25;98260.88;;;8.78
71960;BMP280;59832;51.146;14.024;2022-09-24T01:18:08;98247.00;;;8.76
71960;BMP280;59832;51.146;14.024;2022-09-24T01:20:50;98241.19;;;8.75
71960;BMP280;59832;51.146;14.024;2022-09-24T01:23:22;98243.66;;;8.72
71960;BMP280;59832;51.146;14.024;2022-09-24T01:26:15;98236.91;;;8.64
71960;BMP280;59832;51.146;14.024;2022-09-24T01:28:59;98234.63;;;8.58
71960;BMP280;59832;51.146;14.024;2022-09-24T01:31:33;98234.53;;;8.55
71960;BMP280;59832;51.146;14.024;2022-09-24T01:34:02;98229.69;;;8.50
71960;BMP280;59832;51.146;14.024;2022-09-24T01:36:31;98230.53;;;8.42
71960;BMP280;59832;51.146;14.024;2022-09-24T01:38:58;98228.66;;;8.39
71960;BMP280;59832;51.146;14.024;2022-09-24T01:41:26;98229.00;;;8.37
71960;BMP280;59832;51.146;14.024;2022-09-24T01:43:52;98227.41;;;8.33
71960;BMP280;59832;51.146;14.024;2022-09-24T01:46:19;98231.00;;;8.32
71960;BMP280;59832;51.146;14.024;2022-09-24T01:48:46;98234.25;;;8.32
71960;BMP280;59832;51.146;14.024;2022-09-24T01:51:15;98230.25;;;8.31
71960;BMP280;59832;51.146;14.024;2022-09-24T01:53:45;98224.06;;;8.29
71960;BMP280;59832;51.146;14.024;2022-09-24T01:56:22;98225.31;;;8.23
71960;BMP280;59832;51.146;14.024;2022-09-24T01:58:52;98226.38;;;8.22
71960;BMP280;59832;51.146;14.024;2022-09-24T02:01:32;98224.16;;;8.20
71960;BMP280;59832;51.146;14.024;2022-09-24T02:04:02;98229.47;;;8.15
71960;BMP280;59832;51.146;14.024;2022-09-24T02:06:32;98229.38;;;8.11
71960;BMP280;59832;51.146;14.024;2022-09-24T02:09:01;98226.50;;;8.13
71960;BMP280;59832;51.146;14.024;2022-09-24T02:11:27;98224.94;;;8.08
71960;BMP280;59832;51.146;14.024;2022-09-24T02:13:56;98227.06;;;8.06
71960;BMP280;59832;51.146;14.024;2022-09-24T02:16:27;98224.63;;;8.10
71960;BMP280;59832;51.146;14.024;2022-09-24T02:18:54;98221.78;;;8.11
71960;BMP280;59832;51.146;14.024;2022-09-24T02:21:22;98216.84;;;8.03
71960;BMP280;59832;51.146;14.024;2022-09-24T02:23:50;98217.13;;;8.01
71960;BMP280;59832;51.146;14.024;2022-09-24T02:26:19;98213.88;;;8.01
71960;BMP280;59832;51.146;14.024;2022-09-24T02:28:45;98212.16;;;8.05
71960;BMP280;59832;51.146;14.024;2022-09-24T02:31:16;98217.66;;;8.07
71960;BMP280;59832;51.146;14.024;2022-09-24T02:33:44;98207.59;;;8.10
71960;BMP280;59832;51.146;14.024;2022-09-24T02:36:30;98210.47;;;8.09
71960;BMP280;59832;51.146;14.024;2022-09-24T02:38:57;98199.50;;;8.05
71960;BMP280;59832;51.146;14.024;2022-09-24T02:41:23;98199.72;;;8.00
71960;BMP280;59832;51.146;14.024;2022-09-24T02:43:51;98198.44;;;8.06
71960;BMP280;59832;51.146;14.024;2022-09-24T02:46:17;98193.16;;;7.99
71960;BMP280;59832;51.146;14.024;2022-09-24T02:48:44;98205.09;;;7.98
71960;BMP280;59832;51.146;14.024;2022-09-24T02:51:10;98201.75;;;7.94
71960;BMP280;59832;51.146;14.024;2022-09-24T02:53:37;98198.47;;;7.94
71960;BMP280;59832;51.146;14.024;2022-09-24T02:56:03;98192.34;;;7.95
71960;BMP280;59832;51.146;14.024;2022-09-24T02:58:29;98201.09;;;7.97
71960;BMP280;59832;51.146;14.024;2022-09-24T03:00:56;98195.50;;;7.92
71960;BMP280;59832;51.146;14.024;2022-09-24T03:03:22;98194.28;;;7.86
71960;BMP280;59832;51.146;14.024;2022-09-24T03:05:49;98197.00;;;7.81
71960;BMP280;59832;51.146;14.024;2022-09-24T03:08:18;98191.63;;;7.82
71960;BMP280;59832;51.146;14.024;2022-09-24T03:10:44;98185.19;;;7.72
71960;BMP280;59832;51.146;14.024;2022-09-24T03:13:12;98183.28;;;7.69
71960;BMP280;59832;51.146;14.024;2022-09-24T03:15:38;98179.19;;;7.65
71960;BMP280;59832;51.146;14.024;2022-09-24T03:18:05;98184.25;;;7.65
71960;BMP280;59832;51.146;14.024;2022-09-24T03:20:31;98183.09;;;7.62
71960;BMP280;59832;51.146;14.024;2022-09-24T03:22:57;98184.03;;;7.58
71960;BMP280;59832;51.146;14.024;2022-09-24T03:25:24;98186.78;;;7.53
71960;BMP280;59832;51.146;14.024;2022-09-24T03:27:50;98177.72;;;7.52
71960;BMP280;59832;51.146;14.024;2022-09-24T03:30:17;98188.34;;;7.45
71960;BMP280;59832;51.146;14.024;2022-09-24T03:33:01;98184.03;;;7.46
71960;BMP280;59832;51.146;14.024;2022-09-24T03:35:27;98183.00;;;7.47
71960;BMP280;59832;51.146;14.024;2022-09-24T03:37:54;98178.91;;;7.42
71960;BMP280;59832;51.146;14.024;2022-09-24T03:40:20;98185.75;;;7.42
71960;BMP280;59832;51.146;14.024;2022-09-24T03:42:46;98174.47;;;7.39
71960;BMP280;59832;51.146;14.024;2022-09-24T03:45:13;98174.75;;;7.38
71960;BMP280;59832;51.146;14.024;2022-09-24T03:47:39;98172.53;;;7.36
71960;BMP280;59832;51.146;14.024;2022-09-24T03:50:07;98165.59;;;7.33
71960;BMP280;59832;51.146;14.024;2022-09-24T03:52:37;98167.69;;;7.31
71960;BMP280;59832;51.146;14.024;2022-09-24T03:55:03;98160.72;;;7.28
71960;BMP280;59832;51.146;14.024;2022-09-24T03:57:30;98164.66;;;7.25
71960;BMP280;59832;51.146;14.024;2022-09-24T03:59:56;98153.56;;;7.18
71960;BMP280;59832;51.146;14.024;2022-09-24T04:02:23;98155.75;;;7.19
71960;BMP280;59832;51.146;14.024;2022-09-24T04:04:50;98152.09;;;7.17
71960;BMP280;59832;51.146;14.024;2022-09-24T04:07:17;98159.13;;;7.11
71960;BMP280;59832;51.146;14.024;2022-09-24T04:09:43;98158.09;;;7.12
71960;BMP280;59832;51.146;14.024;2022-09-24T04:12:10;98156.50;;;7.08
71960;BMP280;59832;51.146;14.024;2022-09-24T04:14:37;98151.09;;;7.09
71960;BMP280;59832;51.146;14.024;2022-09-24T04:17:03;98155.03;;;7.07
71960;BMP280;59832;51.146;14.024;2022-09-24T04:19:29;98158.19;;;7.04
71960;BMP280;59832;51.146;14.024;2022-09-24T04:21:56;98154.06;;;6.99
71960;BMP280;59832;51.146;14.024;2022-09-24T04:24:23;98145.59;;;6.95
71960;BMP280;59832;51.146;14.024;2022-09-24T04:26:49;98153.19;;;6.95
71960;BMP280;59832;51.146;14.024;2022-09-24T04:29:15;98149.31;;;6.98
71960;BMP280;59832;51.146;14.024;2022-09-24T04:31:42;98148.78;;;6.92
71960;BMP280;59832;51.146;14.024;2022-09-24T04:34:08;98154.38;;;6.98
71960;BMP280;59832;51.146;14.024;2022-09-24T04:36:35;98148.03;;;6.92
71960;BMP280;59832;51.146;14.024;2022-09-24T04:39:01;98144.47;;;6.93
71960;BMP280;59832;51.146;14.024;2022-09-24T04:41:28;98148.38;;;6.90
71960;BMP280;59832;51.146;14.024;2022-09-24T04:43:57;98155.81;;;6.86
71960;BMP280;59832;51.146;14.024;2022-09-24T04:46:24;98150.47;;;6.88
71960;BMP280;59832;51.146;14.024;2022-09-24T04:48:50;98145.72;;;6.86
71960;BMP280;59832;51.146;14.024;2022-09-24T04:51:18;98146.75;;;6.85
71960;BMP280;59832;51.146;14.024;2022-09-24T04:53:46;98146.16;;;6.89
71960;BMP280;59832;51.146;14.024;2022-09-24T04:56:14;98145.41;;;6.88
71960;BMP280;59832;51.146;14.024;2022-09-24T04:58:40;98137.38;;;6.86
71960;BMP280;59832;51.146;14.024;2022-09-24T05:01:07;98145.19;;;6.81
71960;BMP280;59832;51.146;14.024;2022-09-24T05:03:33;98147.41;;;6.82
71960;BMP280;59832;51.146;14.024;2022-09-24T05:06:00;98134.41;;;6.84
71960;BMP280;59832;51.146;14.024;2022-09-24T05:08:27;98128.84;;;6.78
71960;BMP280;59832;51.146;14.024;2022-09-24T05:10:53;98133.28;;;6.81
71960;BMP280;59832;51.146;14.024;2022-09-24T05:13:19;98133.38;;;6.85
71960;BMP280;59832;51.146;14.024;2022-09-24T05:15:46;98139.59;;;6.88
71960;BMP280;59832;51.146;14.024;2022-09-24T05:18:13;98142.25;;;6.91
71960;BMP280;59832;51.146;14.024;2022-09-24T05:20:39;98138.75;;;6.96
71960;BMP280;59832;51.146;14.024;2022-09-24T05:23:05;98142.56;;;7.02
71960;BMP280;59832;51.146;14.024;2022-09-24T05:25:32;98142.78;;;7.09
71960;BMP280;59832;51.146;14.024;2022-09-24T05:27:58;98151.53;;;7.11
71960;BMP280;59832;51.146;14.024;2022-09-24T05:30:25;98139.81;;;7.19
71960;BMP280;59832;51.146;14.024;2022-09-24T05:32:52;98137.84;;;7.24
71960;BMP280;59832;51.146;14.024;2022-09-24T05:35:18;98140.56;;;7.32
71960;BMP280;59832;51.146;14.024;2022-09-24T05:37:45;98140.78;;;7.39
71960;BMP280;59832;51.146;14.024;2022-09-24T05:40:14;98148.28;;;7.47
71960;BMP280;59832;51.146;14.024;2022-09-24T05:42:59;98155.00;;;7.55
71960;BMP280;59832;51.146;14.024;2022-09-24T05:45:27;98149.94;;;7.67
71960;BMP280;59832;51.146;14.024;2022-09-24T05:47:53;98159.56;;;7.74
71960;BMP280;59832;51.146;14.024;2022-09-24T05:50:20;98160.91;;;7.84
71960;BMP280;59832;51.146;14.024;2022-09-24T05:52:46;98168.38;;;7.92
71960;BMP280;59832;51.146;14.024;2022-09-24T05:55:12;98161.38;;;8.01
71960;BMP280;59832;51.146;14.024;2022-09-24T05:57:39;98165.56;;;8.09
71960;BMP280;59832;51.146;14.024;2022-09-24T06:00:05;98164.28;;;8.15
71960;BMP280;59832;51.146;14.024;2022-09-24T06:02:32;98167.75;;;8.23
71960;BMP280;59832;51.146;14.024;2022-09-24T06:04:58;98172.94;;;8.27
71960;BMP280;59832;51.146;14.024;2022-09-24T06:07:24;98169.81;;;8.33
71960;BMP280;59832;51.146;14.024;2022-09-24T06:09:51;98165.66;;;8.41
71960;BMP280;59832;51.146;14.024;2022-09-24T06:12:17;98172.72;;;8.47
71960;BMP280;59832;51.146;14.024;2022-09-24T06:14:43;98174.28;;;8.52
71960;BMP280;59832;51.146;14.024;2022-09-24T06:17:10;98167.19;;;8.57
71960;BMP280;59832;51.146;14.024;2022-09-24T06:19:36;98169.66;;;8.70
71960;BMP280;59832;51.146;14.024;2022-09-24T06:22:02;98169.50;;;8.78
71960;BMP280;59832;51.146;14.024;2022-09-24T06:24:29;98168.59;;;8.86
71960;BMP280;59832;51.146;14.024;2022-09-24T06:26:55;98174.56;;;8.94
71960;BMP280;59832;51.146;14.024;2022-09-24T06:29:22;98176.06;;;8.95
71960;BMP280;59832;51.146;14.024;2022-09-24T06:31:48;98171.44;;;9.00
71960;BMP280;59832;51.146;14.024;2022-09-24T06:34:15;98178.91;;;9.09
71960;BMP280;59832;51.146;14.024;2022-09-24T06:36:41;98181.53;;;9.13
71960;BMP280;59832;51.146;14.024;2022-09-24T06:39:07;98179.63;;;9.25
71960;BMP280;59832;51.146;14.024;2022-09-24T06:41:34;98176.53;;;9.32
71960;BMP280;59832;51.146;14.024;2022-09-24T06:44:00;98180.75;;;9.43
71960;BMP280;59832;51.146;14.024;2022-09-24T06:46:27;98176.09;;;9.45
71960;BMP280;59832;51.146;14.024;2022-09-24T06:48:53;98180.31;;;9.57
71960;BMP280;59832;51.146;14.024;2022-09-24T06:51:20;98192.59;;;9.90
71960;BMP280;59832;51.146;14.024;2022-09-24T06:53:49;98187.72;;;10.01
71960;BMP280;59832;51.146;14.024;2022-09-24T06:56:16;98175.38;;;10.22
71960;BMP280;59832;51.146;14.024;2022-09-24T06:58:42;98176.63;;;10.51
71960;BMP280;59832;51.146;14.024;2022-09-24T07:01:08;98172.94;;;10.94
71960;BMP280;59832;51.146;14.024;2022-09-24T07:03:35;98163.00;;;11.11
71960;BMP280;59832;51.146;14.024;2022-09-24T07:06:04;98165.94;;;11.40
71960;BMP280;59832;51.146;14.024;2022-09-24T07:08:30;98161.72;;;11.54
71960;BMP280;59832;51.146;14.024;2022-09-24T07:10:57;98164.34;;;11.61
71960;BMP280;59832;51.146;14.024;2022-09-24T07:13:23;98162.03;;;11.79
71960;BMP280;59832;51.146;14.024;2022-09-24T07:15:50;98164.50;;;11.75
71960;BMP280;59832;51.146;14.024;2022-09-24T07:18:17;98167.25;;;11.60
71960;BMP280;59832;51.146;14.024;2022-09-24T07:20:43;98162.72;;;11.46
71960;BMP280;59832;51.146;14.024;2022-09-24T07:23:10;98166.38;;;11.49
71960;BMP280;59832;51.146;14.024;2022-09-24T07:25:37;98172.25;;;11.53
71960;BMP280;59832;51.146;14.024;2022-09-24T07:28:04;98174.41;;;12.14
71960;BMP280;59832;51.146;14.024;2022-09-24T07:30:31;98172.97;;;12.20
71960;BMP280;59832;51.146;14.024;2022-09-24T07:32:58;98176.34;;;12.27
71960;BMP280;59832;51.146;14.024;2022-09-24T07:35:25;98170.56;;;12.38
71960;BMP280;59832;51.146;14.024;2022-09-24T07:37:55;98171.56;;;12.66
71960;BMP280;59832;51.146;14.024;2022-09-24T07:40:21;98170.41;;;12.57
71960;BMP280;59832;51.146;14.024;2022-09-24T07:42:49;98168.28;;;12.69
71960;BMP280;59832;51.146;14.024;2022-09-24T07:45:16;98169.28;;;12.58
71960;BMP280;59832;51.146;14.024;2022-09-24T07:47:45;98164.72;;;12.81
71960;BMP280;59832;51.146;14.024;2022-09-24T07:50:11;98157.28;;;12.62
71960;BMP280;59832;51.146;14.024;2022-09-24T07:52:38;98156.03;;;12.93
71960;BMP280;59832;51.146;14.024;2022-09-24T07:55:05;98160.06;;;12.94
71960;BMP280;59832;51.146;14.024;2022-09-24T07:57:31;98156.88;;;13.14
71960;BMP280;59832;51.146;14.024;2022-09-24T07:59:57;98161.34;;;13.39
71960;BMP280;59832;51.146;14.024;2022-09-24T08:02:24;98165.34;;;13.33
71960;BMP280;59832;51.146;14.024;2022-09-24T08:04:50;98166.13;;;13.40
71960;BMP280;59832;51.146;14.024;2022-09-24T08:07:16;98174.53;;;13.44
71960;BMP280;59832;51.146;14.024;2022-09-24T08:09:43;98171.31;;;13.54
71960;BMP280;59832;51.146;14.024;2022-09-24T08:12:09;98161.84;;;13.76
71960;BMP280;59832;51.146;14.024;2022-09-24T08:14:37;98158.22;;;13.95
71960;BMP280;59832;51.146;14.024;2022-09-24T08:17:03;98160.44;;;14.49
71960;BMP280;59832;51.146;14.024;2022-09-24T08:19:30;98157.13;;;14.66
71960;BMP280;59832;51.146;14.024;2022-09-24T08:21:58;98153.81;;;14.76
71960;BMP280;59832;51.146;14.024;2022-09-24T08:24:24;98158.41;;;15.31
71960;BMP280;59832;51.146;14.024;2022-09-24T08:26:51;98155.66;;;15.70
71960;BMP280;59832;51.146;14.024;2022-09-24T08:29:17;98155.41;;;16.02
71960;BMP280;59832;51.146;14.024;2022-09-24T08:31:43;98144.16;;;16.70
71960;BMP280;59832;51.146;14.024;2022-09-24T08:34:10;98145.09;;;16.83
71960;BMP280;59832;51.146;14.024;2022-09-24T08:36:36;98146.78;;;17.27
71960;BMP280;59832;51.146;14.024;2022-09-24T08:39:08;98145.63;;;17.32
71960;BMP280;59832;51.146;14.024;2022-09-24T08:41:53;98136.47;;;17.54
71960;BMP280;59832;51.146;14.024;2022-09-24T08:44:26;98140.88;;;17.54
71960;BMP280;59832;51.146;14.024;2022-09-24T08:47:18;98140.16;;;17.53
71960;BMP280;59832;51.146;14.024;2022-09-24T08:52:39;98135.72;;;17.30
71960;BMP280;59832;51.146;14.024;2022-09-24T08:55:11;98140.50;;;17.32
71960;BMP280;59832;51.146;14.024;2022-09-24T09:00:34;98145.56;;;17.09
71960;BMP280;59832;51.146;14.024;2022-09-24T09:03:05;98147.13;;;17.29
71960;BMP280;59832;51.146;14.024;2022-09-24T09:08:18;98141.00;;;17.47
71960;BMP280;59832;51.146;14.024;2022-09-24T09:11:06;98149.63;;;17.06
71960;BMP280;59832;51.146;14.024;2022-09-24T09:18:49;98158.06;;;17.07
71960;BMP280;59832;51.146;14.024;2022-09-24T09:21:39;98164.44;;;16.58
71960;BMP280;59832;51.146;14.024;2022-09-24T09:24:04;98162.16;;;16.70
71960;BMP280;59832;51.146;14.024;2022-09-24T09:26:32;98152.66;;;16.64
71960;BMP280;59832;51.146;14.024;2022-09-24T09:28:58;98151.03;;;16.43
71960;BMP280;59832;51.146;14.024;2022-09-24T09:31:29;98157.47;;;16.62
71960;BMP280;59832;51.146;14.024;2022-09-24T09:39:19;98149.94;;;16.81
71960;BMP280;59832;51.146;14.024;2022-09-24T09:41:49;98150.34;;;16.39
71960;BMP280;59832;51.146;14.024;2022-09-24T09:44:19;98153.53;;;16.50
71960;BMP280;59832;51.146;14.024;2022-09-24T09:47:02;98157.94;;;16.50
71960;BMP280;59832;51.146;14.024;2022-09-24T09:49:32;98158.69;;;16.84
71960;BMP280;59832;51.146;14.024;2022-09-24T09:52:00;98144.22;;;16.63
71960;BMP280;59832;51.146;14.024;2022-09-24T09:54:35;98135.28;;;16.75
71960;BMP280;59832;51.146;14.024;2022-09-24T09:57:02;98136.28;;;16.84
71960;BMP280;59832;51.146;14.024;2022-09-24T09:59:31;98130.75;;;16.56
71960;BMP280;59832;51.146;14.024;2022-09-24T10:01:59;98141.38;;;16.54
71960;BMP280;59832;51.146;14.024;2022-09-24T10:04:29;98139.19;;;16.53
71960;BMP280;59832;51.146;14.024;2022-09-24T10:07:17;98129.53;;;16.64
71960;BMP280;59832;51.146;14.024;2022-09-24T10:09:44;98131.97;;;16.74
71960;BMP280;59832;51.146;14.024;2022-09-24T10:12:15;98130.53;;;16.73
71960;BMP280;59832;51.146;14.024;2022-09-24T10:14:42;98130.16;;;16.75
71960;BMP280;59832;51.146;14.024;2022-09-24T10:17:12;98115.53;;;16.72
71960;BMP280;59832;51.146;14.024;2022-09-24T10:19:40;98123.88;;;16.79
71960;BMP280;59832;51.146;14.024;2022-09-24T10:22:19;98125.81;;;16.68
71960;BMP280;59832;51.146;14.024;2022-09-24T10:24:47;98124.41;;;16.94
71960;BMP280;59832;51.146;14.024;2022-09-24T10:27:18;98126.66;;;16.92
71960;BMP280;59832;51.146;14.024;2022-09-24T10:29:51;98118.53;;;16.94
71960;BMP280;59832;51.146;14.024;2022-09-24T10:32:37;98123.53;;;17.34
71960;BMP280;59832;51.146;14.024;2022-09-24T10:35:18;98125.38;;;17.34
71960;BMP280;59832;51.146;14.024;2022-09-24T10:37:51;98124.06;;;17.22
71960;BMP280;59832;51.146;14.024;2022-09-24T10:40:20;98129.16;;;17.53
71960;BMP280;59832;51.146;14.024;2022-09-24T10:42:58;98128.31;;;17.86
71960;BMP280;59832;51.146;14.024;2022-09-24T10:45:28;98131.19;;;18.31
71960;BMP280;59832;51.146;14.024;2022-09-24T10:50:33;98120.28;;;18.98
71960;BMP280;59832;51.146;14.024;2022-09-24T10:55:36;98112.53;;;18.98
71960;BMP280;59832;51.146;14.024;2022-09-24T11:00:37;98121.28;;;19.21
71960;BMP280;59832;51.146;14.024;2022-09-24T11:05:52;98107.16;;;18.93
71960;BMP280;59832;51.146;14.024;2022-09-24T11:10:55;98107.72;;;19.17
71960;BMP280;59832;51.146;14.024;2022-09-24T11:13:26;98113.53;;;18.88
71960;BMP280;59832;51.146;14.024;2022-09-24T11:16:14;98112.88;;;18.84
71960;BMP280;59832;51.146;14.024;2022-09-24T11:18:53;98117.75;;;19.31
71960;BMP280;59832;51.146;14.024;2022-09-24T11:21:37;98114.69;;;19.20
71960;BMP280;59832;51.146;14.024;2022-09-24T11:27:02;98112.75;;;19.72
71960;BMP280;59832;51.146;14.024;2022-09-24T11:42:23;98102.34;;;19.76
71960;BMP280;59832;51.146;14.024;2022-09-24T11:44:57;98104.00;;;20.11
71960;BMP280;59832;51.146;14.024;2022-09-24T11:54:58;98082.34;;;19.92
71960;BMP280;59832;51.146;14.024;2022-09-24T11:57:27;98090.69;;;19.84
71960;BMP280;59832;51.146;14.024;2022-09-24T11:59:56;98079.69;;;19.67
71960;BMP280;59832;51.146;14.024;2022-09-24T12:04:59;98085.19;;;19.37
71960;BMP280;59832;51.146;14.024;2022-09-24T12:09:58;98095.19;;;19.02
71960;BMP280;59832;51.146;14.024;2022-09-24T12:12:26;98086.38;;;19.00
71960;BMP280;59832;51.146;14.024;2022-09-24T12:15:01;98086.53;;;18.93
71960;BMP280;59832;51.146;14.024;2022-09-24T12:17:35;98079.19;;;18.91
71960;BMP280;59832;51.146;14.024;2022-09-24T12:20:15;98083.22;;;18.92
71960;BMP280;59832;51.146;14.024;2022-09-24T12:22:46;98083.00;;;19.03
71960;BMP280;59832;51.146;14.024;2022-09-24T12:25:14;98081.03;;;18.75
71960;BMP280;59832;51.146;14.024;2022-09-24T12:27:40;98082.66;;;18.29
71960;BMP280;59832;51.146;14.024;2022-09-24T12:30:23;98079.69;;;18.67
71960;BMP280;59832;51.146;14.024;2022-09-24T12:38:19;98064.03;;;18.58
71960;BMP280;59832;51.146;14.024;2022-09-24T12:43:38;98063.72;;;18.56
71960;BMP280;59832;51.146;14.024;2022-09-24T12:46:05;98055.94;;;18.39
71960;BMP280;59832;51.146;14.024;2022-09-24T12:48:35;98050.88;;;18.72
71960;BMP280;59832;51.146;14.024;2022-09-24T12:51:03;98053.72;;;18.58
71960;BMP280;59832;51.146;14.024;2022-09-24T12:53:34;98043.59;;;18.31
71960;BMP280;59832;51.146;14.024;2022-09-24T12:56:01;98049.03;;;18.17
71960;BMP280;59832;51.146;14.024;2022-09-24T12:58:29;98048.25;;;18.20
71960;BMP280;59832;51.146;14.024;2022-09-24T13:01:10;98052.06;;;18.31
71960;BMP280;59832;51.146;14.024;2022-09-24T13:03:37;98044.00;;;18.29
71960;BMP280;59832;51.146;14.024;2022-09-24T13:06:22;98056.16;;;18.09
71960;BMP280;59832;51.146;14.024;2022-09-24T13:08:55;98054.34;;;18.06
71960;BMP280;59832;51.146;14.024;2022-09-24T13:11:29;98055.97;;;18.00
71960;BMP280;59832;51.146;14.024;2022-09-24T13:16:28;98047.44;;;18.03
71960;BMP280;59832;51.146;14.024;2022-09-24T13:18:55;98044.03;;;18.10
71960;BMP280;59832;51.146;14.024;2022-09-24T13:21:24;98039.22;;;17.88
71960;BMP280;59832;51.146;14.024;2022-09-24T13:23:51;98039.63;;;18.07
71960;BMP280;59832;51.146;14.024;2022-09-24T13:34:20;98043.66;;;18.08
71960;BMP280;59832;51.146;14.024;2022-09-24T13:39:23;98033.81;;;17.83
71960;BMP280;59832;51.146;14.024;2022-09-24T13:49:36;98024.19;;;18.07
71960;BMP280;59832;51.146;14.024;2022-09-24T13:52:08;98028.09;;;18.15
71960;BMP280;59832;51.146;14.024;2022-09-24T13:54:39;98028.78;;;18.19
71960;BMP280;59832;51.146;14.024;2022-09-24T13:57:13;98032.84;;;18.16
71960;BMP280;59832;51.146;14.024;2022-09-24T13:59:44;98029.75;;;18.05
71960;BMP280;59832;51.146;14.024;2022-09-24T14:02:23;98030.13;;;18.04
71960;BMP280;59832;51.146;14.024;2022-09-24T14:04:57;98024.72;;;18.18
71960;BMP280;59832;51.146;14.024;2022-09-24T14:07:24;98027.22;;;18.21
71960;BMP280;59832;51.146;14.024;2022-09-24T14:10:00;98016.47;;;18.07
71960;BMP280;59832;51.146;14.024;2022-09-24T14:12:27;98016.28;;;18.17
71960;BMP280;59832;51.146;14.024;2022-09-24T14:14:53;98014.50;;;18.14
71960;BMP280;59832;51.146;14.024;2022-09-24T14:17:23;98022.88;;;17.99
71960;BMP280;59832;51.146;14.024;2022-09-24T14:19:53;98022.50;;;18.00
71960;BMP280;59832;51.146;14.024;2022-09-24T14:22:21;98014.81;;;17.96
71960;BMP280;59832;51.146;14.024;2022-09-24T14:24:59;98017.47;;;17.93
71960;BMP280;59832;51.146;14.024;2022-09-24T14:27:27;98018.31;;;17.86
71960;BMP280;59832;51.146;14.024;2022-09-24T14:29:55;98017.25;;;17.84
71960;BMP280;59832;51.146;14.024;2022-09-24T14:32:26;98017.97;;;18.04
71960;BMP280;59832;51.146;14.024;2022-09-24T14:34:54;98025.91;;;17.93
71960;BMP280;59832;51.146;14.024;2022-09-24T14:37:24;98018.09;;;17.77
71960;BMP280;59832;51.146;14.024;2022-09-24T14:39:56;98022.09;;;17.59
71960;BMP280;59832;51.146;14.024;2022-09-24T14:42:28;98022.03;;;17.62
71960;BMP280;59832;51.146;14.024;2022-09-24T14:44:55;98020.03;;;17.50
71960;BMP280;59832;51.146;14.024;2022-09-24T14:47:26;98017.38;;;17.54
71960;BMP280;59832;51.146;14.024;2022-09-24T14:49:53;98006.06;;;17.28
71960;BMP280;59832;51.146;14.024;2022-09-24T14:55:02;98011.75;;;17.39
71960;BMP280;59832;51.146;14.024;2022-09-24T14:57:34;98018.50;;;17.29
71960;BMP280;59832;51.146;14.024;2022-09-24T15:00:01;98017.94;;;17.18
71960;BMP280;59832;51.146;14.024;2022-09-24T15:04:58;98021.06;;;17.33
71960;BMP280;59832;51.146;14.024;2022-09-24T15:07:31;98021.81;;;17.30
71960;BMP280;59832;51.146;14.024;2022-09-24T15:09:58;98017.22;;;17.18
71960;BMP280;59832;51.146;14.024;2022-09-24T15:14:57;98019.22;;;17.07
71960;BMP280;59832;51.146;14.024;2022-09-24T15:17:32;98014.09;;;17.03
71960;BMP280;59832;51.146;14.024;2022-09-24T15:19:58;98018.50;;;17.06
71960;BMP280;59832;51.146;14.024;2022-09-24T15:22:26;98015.06;;;17.16
71960;BMP280;59832;51.146;14.024;2022-09-24T15:24:53;98020.56;;;17.15
71960;BMP280;59832;51.146;14.024;2022-09-24T15:27:30;98019.00;;;16.98
71960;BMP280;59832;51.146;14.024;2022-09-24T15:29:58;98016.50;;;16.91
71960;BMP280;59832;51.146;14.024;2022-09-24T15:32:26;98016.06;;;16.96
71960;BMP280;59832;51.146;14.024;2022-09-24T15:34:52;98012.09;;;16.91
71960;BMP280;59832;51.146;14.024;2022-09-24T15:37:20;98011.31;;;16.94
71960;BMP280;59832;51.146;14.024;2022-09-24T15:39:47;98013.47;;;16.72
71960;BMP280;59832;51.146;14.024;2022-09-24T15:42:17;98012.91;;;16.84
71960;BMP280;59832;51.146;14.024;2022-09-24T15:44:44;98014.81;;;16.80
71960;BMP280;59832;51.146;14.024;2022-09-24T15:47:11;98011.50;;;16.80
71960;BMP280;59832;51.146;14.024;2022-09-24T15:49:37;98006.88;;;16.68